Creighton, Missouri
Current Conditions -  °F | °C
As of 9:55 PM on Thursday 18 Dec 2014 (Local Time) from KGLY Reporting Station
Haze Haze  
Wind Chill: 34°   Ceiling: 100
Heat Index: 34°   Visibility: 1.2mi
Dew Point: 34°   Wind: 3mph
Humidity: 100%   Direction: 80°E
Pressure: 30.26"   Gusts: NA
Location:  38.49°N, 94.07°W
Report Text: KGLY 190355Z AUTO 08003KT 1 1/4SM BR OVC001 01/01 A3026 RMK AO2
Loading
Personal Weather Stations






























Interactive Weather Map New forecast layout! Learn more

10-Day Weather Forecast

Advertisements
Track Severe Weather on mobile